Time;durP1;ratioP1;P1;durP2;ratioP2;P2;SDS_P1;SDS_P2;PMS_P1;PMS_P2;Temp;Humidity;BMP_temperature;BMP_pressure;BME280_temperature;BME280_humidity;BME280_pressure;Samples;Min_cycle;Max_cycle;Signal;HPM_P1;HPM_P2
2021/11/30 00:01:54;;;;;;;48.78;27.98;;;;;;;;;;5002932;28;20025;-47
2021/11/30 00:04:23;;;;;;;67.80;35.92;;;;;;;;;;5003854;28;20025;-48
2021/11/30 00:06:49;;;;;;;53.15;31.83;;;;;;;;;;5004297;28;20018;-47
2021/11/30 00:11:55;;;;;;;51.10;30.63;;;;;;;;;;5003153;28;20124;-50
2021/11/30 00:14:21;;;;;;;33.13;22.10;;;;;;;;;;5003635;28;20069;-49
2021/11/30 00:16:47;;;;;;;34.63;22.27;;;;;;;;;;5003644;28;20148;-50
2021/11/30 00:19:14;;;;;;;32.83;21.38;;;;;;;;;;5003577;28;20029;-49
2021/11/30 00:21:40;;;;;;;33.00;22.75;;;;;;;;;;5003856;28;20029;-45
2021/11/30 00:24:06;;;;;;;42.42;27.77;;;;;;;;;;5003638;28;20464;-47
2021/11/30 00:26:32;;;;;;;52.55;30.08;;;;;;;;;;5002926;28;20025;-46
2021/11/30 00:28:59;;;;;;;38.75;25.50;;;;;;;;;;5003589;28;20064;-45
2021/11/30 00:31:25;;;;;;;39.60;25.25;;;;;;;;;;5003427;28;20025;-49
2021/11/30 00:33:51;;;;;;;43.75;26.67;;;;;;;;;;5013002;28;20091;-51
2021/11/30 00:36:18;;;;;;;47.83;30.52;;;;;;;;;;5033214;28;20029;-51
2021/11/30 00:38:44;;;;;;;50.90;29.55;;;;;;;;;;5033246;28;20014;-49
2021/11/30 00:41:12;;;;;;;32.33;20.75;;;;;;;;;;5032387;28;20029;-54
2021/11/30 00:43:41;;;;;;;35.17;22.10;;;;;;;;;;5032023;28;20021;-56
2021/11/30 00:46:28;;;;;;;40.65;23.83;;;;;;;;;;5033270;28;20025;-54
2021/11/30 00:48:56;;;;;;;45.00;25.38;;;;;;;;;;5033185;28;20037;-54
2021/11/30 00:51:22;;;;;;;51.85;29.60;;;;;;;;;;5033083;28;20020;-50
2021/11/30 00:53:50;;;;;;;36.05;21.55;;;;;;;;;;5033170;28;20021;-53
2021/11/30 00:56:18;;;;;;;38.83;21.35;;;;;;;;;;5033013;28;20067;-56
2021/11/30 00:58:46;;;;;;;45.00;25.95;;;;;;;;;;5032964;28;20020;-57
2021/11/30 01:01:12;;;;;;;42.88;26.25;;;;;;;;;;5033015;28;20032;-56
2021/11/30 01:03:39;;;;;;;56.08;31.23;;;;;;;;;;5032963;28;20028;-56
2021/11/30 01:06:06;;;;;;;55.60;31.33;;;;;;;;;;5032965;28;20072;-54
2021/11/30 01:08:32;;;;;;;47.67;28.13;;;;;;;;;;5032984;28;20028;-56
2021/11/30 01:10:58;;;;;;;87.72;49.78;;;;;;;;;;5032938;28;20037;-56
2021/11/30 01:13:25;;;;;;;41.20;27.25;;;;;;;;;;5033454;28;20021;-49
2021/11/30 01:15:51;;;;;;;36.40;21.67;;;;;;;;;;5036878;28;20050;-58
2021/11/30 01:18:18;;;;;;;43.40;26.05;;;;;;;;;;5036847;28;20029;-55
2021/11/30 01:20:44;;;;;;;34.92;20.95;;;;;;;;;;5036843;28;20036;-56
2021/11/30 01:23:14;;;;;;;40.03;23.85;;;;;;;;;;5036864;28;20096;-50
2021/11/30 01:25:40;;;;;;;40.78;24.98;;;;;;;;;;5037047;28;20029;-57
2021/11/30 01:28:07;;;;;;;35.80;22.48;;;;;;;;;;5036806;28;20021;-58
2021/11/30 01:30:33;;;;;;;44.55;26.33;;;;;;;;;;5036705;28;20025;-58
2021/11/30 01:32:59;;;;;;;60.38;30.40;;;;;;;;;;5036671;28;20029;-58
2021/11/30 01:35:26;;;;;;;44.03;25.85;;;;;;;;;;5036470;28;20064;-57
2021/11/30 01:37:53;;;;;;;45.08;25.42;;;;;;;;;;5036625;28;20359;-52
2021/11/30 01:40:23;;;;;;;38.70;23.73;;;;;;;;;;5036624;28;20071;-57
2021/11/30 01:42:50;;;;;;;27.52;18.00;;;;;;;;;;5036594;28;20374;-56
2021/11/30 01:45:30;;;;;;;45.00;27.08;;;;;;;;;;5036367;28;20029;-57
2021/11/30 01:50:31;;;;;;;34.47;22.42;;;;;;;;;;5036398;28;20112;-56
2021/11/30 01:52:57;;;;;;;47.20;27.23;;;;;;;;;;5036363;28;20060;-56
2021/11/30 01:55:23;;;;;;;45.00;28.88;;;;;;;;;;5036233;28;20067;-56
2021/11/30 01:57:52;;;;;;;49.92;31.50;;;;;;;;;;5036301;28;20059;-56
2021/11/30 02:00:18;;;;;;;38.00;23.65;;;;;;;;;;5036198;28;20506;-57
2021/11/30 02:02:44;;;;;;;53.75;29.58;;;;;;;;;;5036000;28;20029;-55
2021/11/30 02:05:11;;;;;;;63.38;34.42;;;;;;;;;;5036083;28;20025;-53
2021/11/30 02:07:40;;;;;;;38.10;24.63;;;;;;;;;;5036299;28;20017;-56
2021/11/30 02:10:08;;;;;;;53.10;32.85;;;;;;;;;;5036210;28;20367;-57
2021/11/30 02:12:41;;;;;;;44.17;28.95;;;;;;;;;;5036082;28;20021;-56
2021/11/30 02:15:08;;;;;;;29.92;20.83;;;;;;;;;;5035519;28;20033;-55
2021/11/30 02:17:35;;;;;;;42.05;27.52;;;;;;;;;;5035786;28;20111;-55
2021/11/30 02:20:01;;;;;;;42.35;27.35;;;;;;;;;;5035859;28;20025;-57
2021/11/30 02:22:28;;;;;;;56.05;28.90;;;;;;;;;;5035837;28;20529;-57
2021/11/30 02:24:55;;;;;;;40.30;22.35;;;;;;;;;;5035502;28;20029;-54
2021/11/30 02:27:22;;;;;;;44.42;25.02;;;;;;;;;;5035816;28;20030;-58
2021/11/30 02:29:49;;;;;;;35.58;23.40;;;;;;;;;;5035830;28;20131;-57
2021/11/30 02:32:15;;;;;;;44.25;26.13;;;;;;;;;;5035556;28;20076;-58
2021/11/30 02:34:41;;;;;;;41.17;25.20;;;;;;;;;;5034361;28;20381;-57
2021/11/30 02:37:16;;;;;;;34.90;22.98;;;;;;;;;;5035828;28;20025;-57
2021/11/30 02:39:46;;;;;;;32.95;21.52;;;;;;;;;;5035576;28;20021;-57
2021/11/30 02:42:14;;;;;;;36.88;23.42;;;;;;;;;;5035624;28;20381;-56
2021/11/30 02:44:40;;;;;;;29.48;19.77;;;;;;;;;;5034073;28;20049;-57
2021/11/30 02:47:08;;;;;;;36.65;24.00;;;;;;;;;;5034135;28;20037;-56
2021/11/30 02:49:35;;;;;;;30.67;21.88;;;;;;;;;;5035377;28;20021;-55
2021/11/30 02:52:10;;;;;;;31.88;21.92;;;;;;;;;;5035475;28;20025;-57
2021/11/30 02:54:41;;;;;;;35.28;24.60;;;;;;;;;;5035255;28;20026;-57
2021/11/30 02:57:10;;;;;;;33.10;22.20;;;;;;;;;;5035341;28;20029;-55
2021/11/30 02:59:39;;;;;;;33.50;21.55;;;;;;;;;;5035060;28;20025;-57
2021/11/30 03:02:11;;;;;;;31.90;19.05;;;;;;;;;;5035258;28;20026;-56
2021/11/30 03:04:37;;;;;;;27.95;19.23;;;;;;;;;;5035251;28;20454;-56
2021/11/30 03:07:04;;;;;;;28.98;19.83;;;;;;;;;;5035022;28;20029;-56
2021/11/30 03:09:30;;;;;;;26.50;18.38;;;;;;;;;;5034078;28;20028;-57
2021/11/30 03:11:56;;;;;;;31.98;21.48;;;;;;;;;;5035071;28;20037;-56
2021/11/30 03:14:27;;;;;;;27.15;18.27;;;;;;;;;;5034597;28;20454;-55
2021/11/30 03:16:54;;;;;;;24.10;16.05;;;;;;;;;;5034937;28;20512;-56
2021/11/30 03:19:20;;;;;;;24.55;16.30;;;;;;;;;;5034751;28;20030;-53
2021/11/30 03:21:47;;;;;;;31.67;21.38;;;;;;;;;;5034819;28;20056;-57
2021/11/30 03:24:15;;;;;;;31.95;21.95;;;;;;;;;;5033371;28;20030;-57
2021/11/30 03:26:41;;;;;;;32.50;21.30;;;;;;;;;;5033328;28;20033;-57
2021/11/30 03:29:08;;;;;;;30.58;20.88;;;;;;;;;;5034515;28;20113;-56
2021/11/30 03:34:10;;;;;;;31.45;18.80;;;;;;;;;;5034811;28;20034;-56
2021/11/30 03:36:42;;;;;;;26.70;18.73;;;;;;;;;;5033839;28;20114;-55
2021/11/30 03:39:10;;;;;;;24.58;18.50;;;;;;;;;;5034377;28;20490;-55
2021/11/30 03:41:36;;;;;;;23.25;16.75;;;;;;;;;;5034334;28;20521;-55
2021/11/30 03:44:04;;;;;;;33.70;19.45;;;;;;;;;;5034173;28;20036;-55
2021/11/30 03:46:31;;;;;;;19.83;14.27;;;;;;;;;;5033722;28;20033;-56
2021/11/30 03:48:57;;;;;;;20.88;14.00;;;;;;;;;;5034418;28;20082;-57
2021/11/30 03:51:28;;;;;;;19.48;13.20;;;;;;;;;;5034254;28;20032;-55
2021/11/30 03:53:56;;;;;;;19.73;13.68;;;;;;;;;;5034219;28;20029;-55
2021/11/30 03:56:22;;;;;;;25.30;15.73;;;;;;;;;;5033985;28;20060;-54
2021/11/30 03:58:49;;;;;;;22.70;15.25;;;;;;;;;;5034013;28;20029;-55
2021/11/30 04:01:15;;;;;;;28.90;18.35;;;;;;;;;;5034168;28;20079;-56
2021/11/30 04:03:42;;;;;;;23.02;15.10;;;;;;;;;;5033931;28;20080;-55
2021/11/30 04:06:08;;;;;;;24.48;13.98;;;;;;;;;;5034044;28;20104;-54
2021/11/30 04:08:38;;;;;;;24.88;16.73;;;;;;;;;;5034063;28;20021;-55
2021/11/30 04:11:05;;;;;;;37.75;19.40;;;;;;;;;;5034055;28;20026;-55
2021/11/30 04:13:31;;;;;;;30.65;15.52;;;;;;;;;;5033770;28;20030;-55
2021/11/30 04:15:57;;;;;;;27.33;15.98;;;;;;;;;;5033428;28;20060;-55
2021/11/30 04:18:24;;;;;;;27.02;16.15;;;;;;;;;;5034050;28;20359;-54
2021/11/30 04:20:50;;;;;;;31.02;17.35;;;;;;;;;;5033697;28;20018;-55
2021/11/30 04:23:19;;;;;;;28.67;18.30;;;;;;;;;;5033881;28;20028;-55
2021/11/30 04:25:45;;;;;;;28.73;16.83;;;;;;;;;;5033612;28;20382;-56
2021/11/30 04:28:11;;;;;;;29.75;17.17;;;;;;;;;;5033511;28;20040;-56
2021/11/30 04:30:37;;;;;;;27.52;16.17;;;;;;;;;;5033592;28;20029;-56
2021/11/30 04:33:06;;;;;;;30.05;18.20;;;;;;;;;;5033605;28;20551;-55
2021/11/30 04:35:34;;;;;;;29.90;17.67;;;;;;;;;;5033401;28;20041;-55
2021/11/30 04:38:00;;;;;;;32.08;17.70;;;;;;;;;;5032116;28;20500;-56
2021/11/30 04:40:26;;;;;;;28.05;16.95;;;;;;;;;;5033289;28;20064;-56
2021/11/30 04:42:52;;;;;;;27.05;17.10;;;;;;;;;;5032096;28;20511;-55
2021/11/30 04:46:10;;;;;;;32.10;18.00;;;;;;;;;;5033217;28;20029;-56
2021/11/30 04:48:05;;;;;;;29.63;17.70;;;;;;;;;;5028415;28;20125;-54
2021/11/30 04:50:36;;;;;;;25.60;16.10;;;;;;;;;;5033291;28;20474;-54
2021/11/30 04:53:04;;;;;;;31.13;17.65;;;;;;;;;;5031980;28;20033;-56
2021/11/30 04:55:31;;;;;;;35.22;18.73;;;;;;;;;;5033454;28;20034;-55
2021/11/30 04:57:59;;;;;;;33.97;16.65;;;;;;;;;;5033117;28;20079;-55
2021/11/30 05:00:27;;;;;;;33.92;18.00;;;;;;;;;;5033252;28;20034;-55
2021/11/30 05:02:54;;;;;;;30.77;17.17;;;;;;;;;;5033007;28;20036;-57
2021/11/30 05:05:20;;;;;;;29.95;17.23;;;;;;;;;;5033145;28;20022;-57
2021/11/30 05:07:46;;;;;;;28.38;16.55;;;;;;;;;;5032944;28;20057;-57
2021/11/30 05:10:19;;;;;;;24.15;14.48;;;;;;;;;;5033065;28;20432;-57
2021/11/30 05:12:48;;;;;;;21.52;13.07;;;;;;;;;;5033381;28;20065;-57
2021/11/30 05:15:14;;;;;;;19.88;11.85;;;;;;;;;;5032580;28;20516;-56
2021/11/30 05:17:41;;;;;;;19.60;11.82;;;;;;;;;;5032940;28;20080;-57
2021/11/30 05:20:08;;;;;;;20.52;11.88;;;;;;;;;;5032993;28;20028;-55
2021/11/30 05:22:38;;;;;;;25.02;11.85;;;;;;;;;;5032693;28;20485;-56
2021/11/30 05:25:07;;;;;;;17.58;11.52;;;;;;;;;;5033082;28;20029;-55
2021/11/30 05:27:39;;;;;;;23.35;11.80;;;;;;;;;;5032983;28;20473;-49
2021/11/30 05:30:12;;;;;;;23.90;12.70;;;;;;;;;;5032830;28;20052;-57
2021/11/30 05:32:39;;;;;;;29.70;16.00;;;;;;;;;;5032849;28;20112;-48
2021/11/30 05:35:05;;;;;;;24.88;13.60;;;;;;;;;;5032817;28;20470;-51
2021/11/30 05:37:33;;;;;;;27.95;14.32;;;;;;;;;;5032901;28;20390;-51
2021/11/30 05:40:00;;;;;;;30.75;14.98;;;;;;;;;;5032769;28;20516;-48
2021/11/30 05:42:28;;;;;;;28.40;13.23;;;;;;;;;;5032837;28;20032;-51
2021/11/30 05:44:54;;;;;;;27.55;13.90;;;;;;;;;;5032604;28;20143;-54
2021/11/30 05:47:20;;;;;;;23.17;12.40;;;;;;;;;;5032765;28;20457;-48
2021/11/30 05:49:46;;;;;;;26.77;14.60;;;;;;;;;;5032474;28;20040;-50
2021/11/30 05:52:12;;;;;;;30.80;14.23;;;;;;;;;;5032661;28;20528;-54
2021/11/30 05:54:39;;;;;;;25.02;13.25;;;;;;;;;;5032795;28;20029;-54
2021/11/30 05:57:11;;;;;;;23.50;12.50;;;;;;;;;;5032689;28;20398;-48
2021/11/30 05:59:41;;;;;;;25.70;12.85;;;;;;;;;;5033430;28;20021;-52
2021/11/30 06:02:08;;;;;;;23.13;14.00;;;;;;;;;;5036364;28;20018;-49
2021/11/30 06:04:34;;;;;;;23.48;13.70;;;;;;;;;;5035658;28;20053;-54
2021/11/30 06:07:00;;;;;;;23.20;11.57;;;;;;;;;;5035834;28;20029;-55
2021/11/30 06:09:27;;;;;;;24.33;13.68;;;;;;;;;;5036266;28;20030;-48
2021/11/30 06:11:53;;;;;;;27.13;12.85;;;;;;;;;;5036541;28;20497;-48
2021/11/30 06:14:21;;;;;;;34.35;16.08;;;;;;;;;;5035890;28;20413;-52
2021/11/30 06:16:47;;;;;;;28.35;12.88;;;;;;;;;;5036156;28;20163;-48
2021/11/30 06:19:15;;;;;;;32.40;16.70;;;;;;;;;;5035757;28;20113;-53
2021/11/30 06:21:41;;;;;;;29.90;15.65;;;;;;;;;;5035908;28;20084;-48
2021/11/30 06:24:07;;;;;;;23.83;11.95;;;;;;;;;;5035947;28;20021;-48
2021/11/30 06:26:33;;;;;;;25.92;14.02;;;;;;;;;;5035884;28;20026;-47
2021/11/30 06:28:59;;;;;;;28.27;11.55;;;;;;;;;;5035767;28;20112;-56
2021/11/30 06:31:25;;;;;;;26.50;14.25;;;;;;;;;;5035775;28;20377;-49
2021/11/30 06:33:51;;;;;;;34.65;17.27;;;;;;;;;;5035662;28;20413;-50
2021/11/30 06:36:17;;;;;;;20.88;14.80;;;;;;;;;;5035663;28;20037;-55
2021/11/30 06:38:43;;;;;;;29.45;18.83;;;;;;;;;;5035673;28;20078;-49
2021/11/30 06:41:10;;;;;;;48.30;43.75;;;;;;;;;;5035666;28;20492;-50
2021/11/30 06:43:36;;;;;;;1999.90;999.90;;;;;;;;;;5035479;28;20040;-53
2021/11/30 06:46:02;;;;;;;30.67;27.50;;;;;;;;;;5035509;28;20034;-56
2021/11/30 06:48:28;;;;;;;1999.90;999.90;;;;;;;;;;5035306;28;20049;-53
2021/11/30 06:50:59;;;;;;;1999.90;999.90;;;;;;;;;;5035373;28;20517;-57
2021/11/30 06:53:30;;;;;;;1999.90;999.90;;;;;;;;;;5035387;28;20029;-54
2021/11/30 06:55:56;;;;;;;;;;;;;;;;;;5035745;28;20087;-51
2021/11/30 06:58:25;;;;;;;16.90;10.43;;;;;;;;;;5035463;28;19905;-56
2021/11/30 07:00:53;;;;;;;18.85;11.68;;;;;;;;;;5035216;28;20493;-55
2021/11/30 07:03:23;;;;;;;16.10;10.50;;;;;;;;;;5035120;28;20025;-50
2021/11/30 07:06:03;;;;;;;17.23;11.32;;;;;;;;;;5035307;28;20033;-49
2021/11/30 07:14:09;;;;;;;18.27;11.73;;;;;;;;;;5013158;28;20402;-49
2021/11/30 07:16:36;;;;;;;18.73;10.82;;;;;;;;;;5013262;28;20125;-51
2021/11/30 07:19:02;;;;;;;21.10;12.10;;;;;;;;;;5012981;28;20037;-55
2021/11/30 07:21:28;;;;;;;23.25;13.63;;;;;;;;;;5012891;28;20052;-55
2021/11/30 07:23:55;;;;;;;27.85;14.75;;;;;;;;;;5012873;28;20022;-53
2021/11/30 07:26:22;;;;;;;34.75;16.73;;;;;;;;;;5012828;28;20161;-53
2021/11/30 07:28:48;;;;;;;34.00;17.00;;;;;;;;;;5013213;28;20109;-54
2021/11/30 07:31:15;;;;;;;33.47;17.92;;;;;;;;;;5012701;28;20048;-53
2021/11/30 07:33:44;;;;;;;25.45;15.05;;;;;;;;;;5012578;28;20050;-55
2021/11/30 07:36:11;;;;;;;36.78;20.02;;;;;;;;;;5012659;28;20058;-54
2021/11/30 07:38:37;;;;;;;29.27;16.20;;;;;;;;;;5012739;28;20026;-52
2021/11/30 07:41:04;;;;;;;31.13;16.52;;;;;;;;;;5012718;28;20037;-55
2021/11/30 07:43:30;;;;;;;37.80;19.83;;;;;;;;;;5012372;28;20033;-54
2021/11/30 07:45:56;;;;;;;30.30;15.98;;;;;;;;;;5012558;28;20069;-54
2021/11/30 07:48:23;;;;;;;25.25;14.40;;;;;;;;;;5028671;28;20045;-55
2021/11/30 07:50:50;;;;;;;25.48;14.40;;;;;;;;;;5034138;28;20036;-52
2021/11/30 07:53:16;;;;;;;27.05;15.82;;;;;;;;;;5034236;28;20030;-54
2021/11/30 07:55:45;;;;;;;21.48;13.05;;;;;;;;;;5033948;28;20017;-53
2021/11/30 07:58:11;;;;;;;32.67;15.82;;;;;;;;;;5034285;28;20033;-49
2021/11/30 08:00:39;;;;;;;23.05;12.70;;;;;;;;;;5034414;28;20049;-54
2021/11/30 08:03:07;;;;;;;21.35;13.48;;;;;;;;;;5034112;28;20143;-54
2021/11/30 08:05:33;;;;;;;36.92;18.45;;;;;;;;;;5034030;28;20017;-55
2021/11/30 08:08:00;;;;;;;31.77;16.95;;;;;;;;;;5034016;28;20028;-55
2021/11/30 08:10:28;;;;;;;38.38;20.40;;;;;;;;;;5033775;28;20129;-55
2021/11/30 08:12:55;;;;;;;33.58;17.55;;;;;;;;;;5033970;28;20022;-56
2021/11/30 08:15:21;;;;;;;28.67;14.07;;;;;;;;;;5033751;28;20049;-51
2021/11/30 08:17:47;;;;;;;34.80;19.42;;;;;;;;;;5033617;28;20492;-52
2021/11/30 08:20:13;;;;;;;24.02;14.25;;;;;;;;;;5033650;28;20108;-54
2021/11/30 08:22:42;;;;;;;26.25;13.88;;;;;;;;;;5033481;28;20083;-57
2021/11/30 08:25:09;;;;;;;24.33;14.15;;;;;;;;;;5033448;28;20021;-56
2021/11/30 08:27:35;;;;;;;26.10;15.02;;;;;;;;;;5033794;28;20030;-56
2021/11/30 08:30:01;;;;;;;30.63;15.30;;;;;;;;;;5033749;28;20032;-55
2021/11/30 08:32:28;;;;;;;27.00;15.27;;;;;;;;;;5033560;28;20025;-55
2021/11/30 08:34:55;;;;;;;29.38;16.83;;;;;;;;;;5033373;28;20014;-43
2021/11/30 08:37:22;;;;;;;26.63;13.90;;;;;;;;;;5033507;28;20038;-44
2021/11/30 08:39:49;;;;;;;23.60;12.18;;;;;;;;;;5033503;28;20052;-43
2021/11/30 08:42:16;;;;;;;30.38;14.70;;;;;;;;;;5033565;28;20033;-43
2021/11/30 08:44:42;;;;;;;33.80;18.98;;;;;;;;;;5033295;28;20508;-43
2021/11/30 08:47:10;;;;;;;25.90;16.10;;;;;;;;;;5033355;28;20037;-43
2021/11/30 08:49:36;;;;;;;23.33;12.45;;;;;;;;;;5033168;28;20026;-56
2021/11/30 08:52:03;;;;;;;33.35;15.70;;;;;;;;;;5033123;28;20029;-55
2021/11/30 08:54:30;;;;;;;22.23;12.82;;;;;;;;;;5033191;28;20049;-57
2021/11/30 08:56:57;;;;;;;35.70;19.75;;;;;;;;;;5033034;28;20044;-57
2021/11/30 08:59:23;;;;;;;66.40;30.05;;;;;;;;;;5033257;28;20029;-56
2021/11/30 09:01:49;;;;;;;41.15;22.67;;;;;;;;;;5033087;28;20030;-56
2021/11/30 09:04:15;;;;;;;36.97;18.95;;;;;;;;;;5033251;28;20017;-57
2021/11/30 09:06:41;;;;;;;63.97;34.67;;;;;;;;;;5033229;28;20026;-57
2021/11/30 09:09:09;;;;;;;60.83;33.05;;;;;;;;;;5033172;28;20045;-58
2021/11/30 09:11:38;;;;;;;76.65;40.40;;;;;;;;;;5032895;28;20025;-56
2021/11/30 09:14:07;;;;;;;41.80;23.42;;;;;;;;;;5032849;28;20489;-58
2021/11/30 09:16:33;;;;;;;45.72;23.08;;;;;;;;;;5032922;28;20037;-55
2021/11/30 09:19:02;;;;;;;76.50;41.55;;;;;;;;;;5033015;28;20457;-54
2021/11/30 09:21:28;;;;;;;49.30;26.67;;;;;;;;;;5032937;28;20025;-55
2021/11/30 09:23:56;;;;;;;51.50;27.75;;;;;;;;;;5033129;28;20028;-54
2021/11/30 09:26:22;;;;;;;71.88;36.55;;;;;;;;;;5032312;28;20040;-48
2021/11/30 09:28:48;;;;;;;68.32;38.45;;;;;;;;;;5033470;28;20025;-50
2021/11/30 09:31:15;;;;;;;67.13;35.03;;;;;;;;;;5033650;28;20048;-54
2021/11/30 09:33:43;;;;;;;67.22;37.53;;;;;;;;;;5033231;28;20022;-47
2021/11/30 09:36:10;;;;;;;37.38;22.45;;;;;;;;;;5036450;28;20092;-53
2021/11/30 09:38:36;;;;;;;60.00;32.85;;;;;;;;;;5036983;28;20029;-51
2021/11/30 09:41:03;;;;;;;25.88;15.55;;;;;;;;;;5036890;28;20021;-51
2021/11/30 09:43:32;;;;;;;29.58;15.35;;;;;;;;;;5036807;28;20073;-52
2021/11/30 09:45:59;;;;;;;38.95;20.42;;;;;;;;;;5036717;28;20615;-56
2021/11/30 09:48:25;;;;;;;93.68;54.25;;;;;;;;;;5036106;28;20029;-57
2021/11/30 09:50:54;;;;;;;186.07;114.10;;;;;;;;;;5035543;28;20037;-55
2021/11/30 09:53:20;;;;;;;73.85;37.55;;;;;;;;;;5036635;28;20052;-56
2021/11/30 09:55:47;;;;;;;66.47;36.03;;;;;;;;;;5036210;28;20100;-54
2021/11/30 09:58:14;;;;;;;82.45;43.22;;;;;;;;;;5036436;28;20036;-54
2021/11/30 10:00:41;;;;;;;63.05;36.45;;;;;;;;;;5036676;28;20444;-52
2021/11/30 10:03:08;;;;;;;60.92;35.15;;;;;;;;;;5036326;28;20462;-53
2021/11/30 10:05:35;;;;;;;81.28;42.65;;;;;;;;;;5036207;28;20033;-54
2021/11/30 10:08:01;;;;;;;40.72;23.27;;;;;;;;;;5036342;28;20017;-53
2021/11/30 10:10:30;;;;;;;67.32;35.47;;;;;;;;;;5036135;28;20017;-56
2021/11/30 10:13:05;;;;;;;51.83;28.80;;;;;;;;;;5036231;28;20048;-57
2021/11/30 10:15:46;;;;;;;64.78;36.92;;;;;;;;;;5035884;28;20055;-56
2021/11/30 10:18:16;;;;;;;;;;;;;;;;;;5036517;28;20118;-56
2021/11/30 10:20:45;;;;;;;83.68;43.92;;;;;;;;;;5035838;28;19951;-51
2021/11/30 10:23:13;;;;;;;67.05;37.17;;;;;;;;;;5035900;28;20104;-57
2021/11/30 10:25:40;;;;;;;118.22;61.20;;;;;;;;;;5035737;28;20034;-59
2021/11/30 10:28:15;;;;;;;48.58;24.90;;;;;;;;;;5035980;28;20486;-63
2021/11/30 10:30:49;;;;;;;53.22;29.52;;;;;;;;;;5035778;28;20048;-62
2021/11/30 10:33:26;;;;;;;46.78;24.38;;;;;;;;;;5035839;28;20104;-58
2021/11/30 10:35:59;;;;;;;41.30;22.90;;;;;;;;;;5035693;28;20021;-62
2021/11/30 10:38:33;;;;;;;39.00;20.50;;;;;;;;;;5035719;28;20117;-62
2021/11/30 10:41:09;;;;;;;41.97;22.55;;;;;;;;;;5035743;28;20087;-58
2021/11/30 10:43:39;;;;;;;30.45;17.40;;;;;;;;;;5035507;28;20027;-55
2021/11/30 10:46:09;;;;;;;38.25;21.35;;;;;;;;;;5035521;28;20041;-43
2021/11/30 10:48:35;;;;;;;22.05;13.18;;;;;;;;;;5035550;28;20029;-58
2021/11/30 10:51:01;;;;;;;42.78;21.60;;;;;;;;;;5035269;28;20061;-60
2021/11/30 10:53:32;;;;;;;24.23;13.15;;;;;;;;;;5035426;28;20105;-57
2021/11/30 10:56:00;;;;;;;40.50;19.73;;;;;;;;;;5034987;28;20017;-60
2021/11/30 10:58:28;;;;;;;20.33;11.52;;;;;;;;;;5035241;28;20053;-60
2021/11/30 11:00:58;;;;;;;36.00;19.50;;;;;;;;;;5035050;28;20370;-59
2021/11/30 11:03:24;;;;;;;40.95;21.30;;;;;;;;;;5035115;28;20389;-59
2021/11/30 11:08:42;;;;;;;71.78;34.10;;;;;;;;;;5013119;28;20034;-56
2021/11/30 11:11:08;;;;;;;78.32;38.17;;;;;;;;;;5012126;28;20386;-53
2021/11/30 11:13:35;;;;;;;77.68;40.20;;;;;;;;;;5011807;28;20526;-56
2021/11/30 11:16:05;;;;;;;24.80;11.48;;;;;;;;;;5012289;28;20177;-56
2021/11/30 11:18:34;;;;;;;24.63;13.25;;;;;;;;;;5011199;28;20026;-57
2021/11/30 11:21:09;;;;;;;40.08;17.80;;;;;;;;;;5011712;28;20149;-56
2021/11/30 11:23:42;;;;;;;29.67;15.32;;;;;;;;;;5010020;28;20033;-57
2021/11/30 11:26:16;;;;;;;42.42;17.92;;;;;;;;;;5008234;28;20029;-61
2021/11/30 11:28:42;;;;;;;43.92;19.05;;;;;;;;;;5011328;28;20113;-62
2021/11/30 11:31:08;;;;;;;25.95;12.20;;;;;;;;;;5011299;28;20126;-55
2021/11/30 11:33:35;;;;;;;35.78;12.88;;;;;;;;;;5011113;28;20048;-61
2021/11/30 11:36:04;;;;;;;37.67;17.38;;;;;;;;;;5011013;28;20045;-63
2021/11/30 11:38:30;;;;;;;33.55;14.95;;;;;;;;;;5008633;28;20403;-63
2021/11/30 11:40:57;;;;;;;19.95;11.50;;;;;;;;;;5011164;28;20033;-63
2021/11/30 11:43:23;;;;;;;21.95;11.43;;;;;;;;;;5011918;28;20117;-63
2021/11/30 11:45:49;;;;;;;29.67;14.63;;;;;;;;;;5021140;28;20099;-62
2021/11/30 11:48:16;;;;;;;16.10;10.30;;;;;;;;;;5034185;28;20034;-63
2021/11/30 11:50:51;;;;;;;44.33;23.30;;;;;;;;;;5034170;28;20021;-64
2021/11/30 11:53:22;;;;;;;19.25;10.57;;;;;;;;;;5034250;28;20108;-56
2021/11/30 11:56:06;;;;;;;44.20;27.00;;;;;;;;;;5034162;28;20026;-46
2021/11/30 11:58:33;;;;;;;53.35;25.35;;;;;;;;;;5033417;28;20037;-62
2021/11/30 12:00:59;;;;;;;33.33;18.05;;;;;;;;;;5033570;28;20044;-62
2021/11/30 12:03:46;;;;;;;22.60;12.35;;;;;;;;;;5033482;28;20026;-59
2021/11/30 12:06:21;;;;;;;24.55;11.30;;;;;;;;;;5032300;28;20021;-56
2021/11/30 12:09:06;;;;;;;33.05;15.10;;;;;;;;;;5032048;28;20469;-63
2021/11/30 12:11:39;;;;;;;25.27;12.82;;;;;;;;;;5032736;28;20105;-55
2021/11/30 12:14:13;;;;;;;46.50;21.65;;;;;;;;;;5032976;28;20035;-59
2021/11/30 12:17:02;;;;;;;70.05;34.53;;;;;;;;;;5030995;28;20026;-59
2021/11/30 12:19:33;;;;;;;58.42;30.75;;;;;;;;;;4970849;28;20510;-46
2021/11/30 12:22:01;;;;;;;54.87;29.17;;;;;;;;;;4970010;28;20050;-60
2021/11/30 12:24:34;;;;;;;55.83;28.52;;;;;;;;;;4972291;28;20076;-64
2021/11/30 12:27:20;;;;;;;86.47;36.30;;;;;;;;;;4972362;28;20121;-65
2021/11/30 12:29:46;;;;;;;65.03;30.30;;;;;;;;;;4971866;28;20030;-51
2021/11/30 12:32:14;;;;;;;68.85;28.95;;;;;;;;;;4972297;28;20030;-62
2021/11/30 12:34:44;;;;;;;31.98;12.43;;;;;;;;;;4972102;28;20047;-63
2021/11/30 12:37:15;;;;;;;43.17;16.10;;;;;;;;;;4972065;28;20042;-62
2021/11/30 12:40:04;;;;;;;25.37;11.17;;;;;;;;;;4971989;28;20034;-63
2021/11/30 12:42:31;;;;;;;66.95;25.33;;;;;;;;;;4972180;28;20074;-60
2021/11/30 12:44:59;;;;;;;66.60;27.27;;;;;;;;;;4972488;28;20395;-63
2021/11/30 12:47:26;;;;;;;55.25;23.58;;;;;;;;;;4972623;28;20455;-64
2021/11/30 12:49:53;;;;;;;36.83;15.98;;;;;;;;;;4972268;28;20041;-63
2021/11/30 12:52:24;;;;;;;26.95;11.73;;;;;;;;;;4973044;28;20031;-62
2021/11/30 12:54:55;;;;;;;24.85;12.02;;;;;;;;;;4972571;28;20026;-59
2021/11/30 12:57:33;;;;;;;30.63;12.73;;;;;;;;;;5023713;28;20478;-65
2021/11/30 13:00:11;;;;;;;26.40;11.75;;;;;;;;;;5033280;28;20497;-63
2021/11/30 13:02:38;;;;;;;28.13;14.18;;;;;;;;;;5033175;28;20044;-61
2021/11/30 13:05:15;;;;;;;81.10;35.72;;;;;;;;;;5033379;28;20022;-58
2021/11/30 13:07:47;;;;;;;33.75;15.30;;;;;;;;;;5033291;28;20033;-63
2021/11/30 13:10:19;;;;;;;27.02;13.52;;;;;;;;;;5035284;28;20520;-61
2021/11/30 13:12:46;;;;;;;27.42;12.15;;;;;;;;;;5037176;28;20025;-62
2021/11/30 13:15:12;;;;;;;24.48;11.20;;;;;;;;;;5037056;28;20455;-63
2021/11/30 13:17:38;;;;;;;54.13;24.42;;;;;;;;;;5037309;28;20060;-63
2021/11/30 13:20:09;;;;;;;27.05;14.57;;;;;;;;;;5037044;28;20033;-64
2021/11/30 13:22:42;;;;;;;55.53;24.52;;;;;;;;;;5037035;28;20021;-57
2021/11/30 13:25:10;;;;;;;26.40;13.65;;;;;;;;;;5037323;28;20083;-56
2021/11/30 13:27:36;;;;;;;51.45;24.08;;;;;;;;;;5037491;28;20045;-62
2021/11/30 13:30:02;;;;;;;37.50;17.83;;;;;;;;;;5036878;28;20381;-62
2021/11/30 13:32:33;;;;;;;24.92;13.55;;;;;;;;;;5036881;28;20101;-62
2021/11/30 13:35:09;;;;;;;21.40;12.17;;;;;;;;;;5036950;28;20051;-62
2021/11/30 13:37:36;;;;;;;45.03;24.58;;;;;;;;;;5036744;28;20037;-58
2021/11/30 13:40:08;;;;;;;28.83;14.18;;;;;;;;;;5036809;28;20026;-59
2021/11/30 13:42:44;;;;;;;26.70;12.82;;;;;;;;;;5036645;28;20389;-63
2021/11/30 13:45:11;;;;;;;26.80;12.50;;;;;;;;;;5036980;28;20036;-62
2021/11/30 13:47:43;;;;;;;27.15;13.13;;;;;;;;;;5035533;28;20565;-60
2021/11/30 13:50:10;;;;;;;27.13;12.77;;;;;;;;;;5036729;28;20053;-57
2021/11/30 13:52:36;;;;;;;27.17;13.88;;;;;;;;;;5036490;28;20035;-59
2021/11/30 13:55:04;;;;;;;48.97;22.63;;;;;;;;;;5036491;28;20083;-61
2021/11/30 13:57:35;;;;;;;28.08;13.63;;;;;;;;;;5036460;28;20037;-59
2021/11/30 14:00:02;;;;;;;36.92;19.20;;;;;;;;;;5036401;28;20013;-63
2021/11/30 14:02:39;;;;;;;61.08;29.67;;;;;;;;;;5036646;28;20021;-61
2021/11/30 14:05:06;;;;;;;51.05;24.50;;;;;;;;;;5036227;28;20113;-65
2021/11/30 14:07:35;;;;;;;36.80;17.80;;;;;;;;;;5036200;28;20553;-62
2021/11/30 14:10:03;;;;;;;45.60;22.55;;;;;;;;;;5036134;28;20116;-63
2021/11/30 14:12:30;;;;;;;50.42;26.48;;;;;;;;;;5036191;28;20366;-63
2021/11/30 14:14:56;;;;;;;34.72;18.77;;;;;;;;;;5036137;28;20041;-57
2021/11/30 14:17:35;;;;;;;29.20;15.48;;;;;;;;;;5036198;28;20064;-58
2021/11/30 14:20:02;;;;;;;28.52;14.80;;;;;;;;;;5035887;28;20020;-46
2021/11/30 14:22:33;;;;;;;29.90;14.00;;;;;;;;;;5036226;28;20033;-48
2021/11/30 14:25:17;;;;;;;43.50;21.35;;;;;;;;;;5036155;28;20040;-45
2021/11/30 14:27:50;;;;;;;33.95;16.35;;;;;;;;;;5035990;28;20048;-45
2021/11/30 14:30:16;;;;;;;16.90;10.82;;;;;;;;;;5035987;28;20026;-53
2021/11/30 14:32:44;;;;;;;16.27;10.35;;;;;;;;;;5035981;28;20113;-45
2021/11/30 14:35:12;;;;;;;20.00;11.65;;;;;;;;;;5036193;28;20430;-64
2021/11/30 14:37:45;;;;;;;20.95;12.68;;;;;;;;;;5035674;28;20037;-62
2021/11/30 14:40:17;;;;;;;27.05;14.07;;;;;;;;;;5034432;28;20540;-63